createdAt,value
2022-11-22T00:00:54.269Z,25.02
2022-11-22T00:03:22.428Z,30.42
2022-11-22T00:05:50.422Z,29.13
2022-11-22T00:08:18.520Z,29.17
2022-11-22T00:10:48.201Z,24.42
2022-11-22T00:13:16.824Z,25.63
2022-11-22T00:15:44.982Z,25.38
2022-11-22T00:18:13.332Z,27.02
2022-11-22T00:20:41.608Z,25.52
2022-11-22T00:23:10.174Z,26.05
2022-11-22T00:25:38.274Z,22.65
2022-11-22T00:28:06.037Z,24.15
2022-11-22T00:30:34.008Z,27.98
2022-11-22T00:33:01.700Z,25.15
2022-11-22T00:35:29.640Z,25.55
2022-11-22T00:37:57.623Z,28.50
2022-11-22T00:40:25.375Z,25.38
2022-11-22T00:42:53.241Z,25.05
2022-11-22T00:45:21.125Z,30.92
2022-11-22T00:47:48.802Z,21.60
2022-11-22T00:50:16.722Z,27.17
2022-11-22T00:52:44.600Z,29.23
2022-11-22T00:55:12.418Z,28.45
2022-11-22T00:57:40.889Z,24.92
2022-11-22T01:00:09.880Z,32.42
2022-11-22T01:02:37.877Z,26.73
2022-11-22T01:05:06.131Z,24.30
2022-11-22T01:07:33.998Z,29.52
2022-11-22T01:10:01.867Z,23.55
2022-11-22T01:12:29.679Z,30.23
2022-11-22T01:14:57.484Z,28.23
2022-11-22T01:17:25.214Z,25.10
2022-11-22T01:19:53.072Z,26.50
2022-11-22T01:22:21.267Z,26.85
2022-11-22T01:24:49.333Z,28.65
2022-11-22T01:27:17.336Z,34.70
2022-11-22T01:29:45.391Z,29.77
2022-11-22T01:32:13.289Z,24.77
2022-11-22T01:34:40.958Z,25.30
2022-11-22T01:37:08.873Z,25.38
2022-11-22T01:39:36.690Z,29.58
2022-11-22T01:42:04.460Z,28.95
2022-11-22T01:44:33.482Z,23.27
2022-11-22T01:47:05.519Z,26.17
2022-11-22T01:49:40.904Z,26.13
2022-11-22T01:52:20.188Z,26.52
2022-11-22T01:54:52.731Z,26.92
2022-11-22T01:57:24.298Z,25.52
2022-11-22T02:00:08.434Z,28.10
2022-11-22T02:02:44.779Z,28.75
2022-11-22T02:05:17.687Z,28.85
2022-11-22T02:07:57.335Z,23.55
2022-11-22T02:10:28.886Z,24.88
2022-11-22T02:12:58.905Z,25.23
2022-11-22T02:15:26.924Z,24.38
2022-11-22T02:17:56.932Z,21.67
2022-11-22T02:20:24.885Z,31.63
2022-11-22T02:22:56.533Z,27.38
2022-11-22T02:25:44.855Z,30.95
2022-11-22T02:28:15.815Z,25.52
2022-11-22T02:30:43.752Z,26.93
2022-11-22T02:33:11.920Z,23.23
2022-11-22T02:35:41.923Z,29.48
2022-11-22T02:38:13.626Z,22.50
2022-11-22T02:41:02.867Z,23.02
2022-11-22T02:43:36.853Z,25.17
2022-11-22T02:46:06.896Z,25.25
2022-11-22T02:48:35.335Z,27.40
2022-11-22T02:51:03.534Z,26.45
2022-11-22T02:53:31.955Z,23.45
2022-11-22T02:56:15.187Z,22.02
2022-11-22T02:58:43.528Z,25.25
2022-11-22T03:01:12.546Z,19.77
2022-11-22T03:03:40.307Z,19.42
2022-11-22T03:06:08.176Z,25.63
2022-11-22T03:08:36.045Z,25.40
2022-11-22T03:11:03.918Z,22.13
2022-11-22T03:13:31.842Z,19.73
2022-11-22T03:16:00.020Z,26.27
2022-11-22T03:18:27.908Z,25.90
2022-11-22T03:20:55.691Z,23.38
2022-11-22T03:23:23.497Z,22.52
2022-11-22T03:25:51.362Z,20.27
2022-11-22T03:28:23.211Z,21.50
2022-11-22T03:30:51.215Z,18.25
2022-11-22T03:33:19.160Z,26.70
2022-11-22T03:35:47.086Z,24.17
2022-11-22T03:38:15.200Z,21.67
2022-11-22T03:40:47.203Z,25.15
2022-11-22T03:45:46.538Z,20.92
2022-11-22T03:48:14.513Z,20.42
2022-11-22T03:50:42.593Z,25.80
2022-11-22T03:53:10.431Z,27.58
2022-11-22T03:55:38.451Z,20.40
2022-11-22T03:58:06.540Z,23.38
2022-11-22T04:00:35.030Z,24.08
2022-11-22T04:03:02.995Z,24.42
2022-11-22T04:05:31.319Z,24.27
2022-11-22T04:07:59.441Z,22.55
2022-11-22T04:10:27.824Z,24.35
2022-11-22T04:13:01.654Z,27.90
2022-11-22T04:15:29.653Z,20.73
2022-11-22T04:17:57.575Z,25.75
2022-11-22T04:20:48.892Z,23.48
2022-11-22T04:23:18.959Z,23.17
2022-11-22T04:25:50.222Z,23.17
2022-11-22T04:28:21.255Z,23.98
2022-11-22T04:31:08.542Z,27.83
2022-11-22T04:33:36.927Z,27.38
2022-11-22T04:36:07.743Z,26.17
2022-11-22T04:38:39.805Z,24.45
2022-11-22T04:41:07.647Z,27.63
2022-11-22T04:43:53.948Z,24.13
2022-11-22T04:46:21.740Z,23.15
2022-11-22T04:48:49.409Z,27.58
2022-11-22T04:51:35.696Z,26.98
2022-11-22T04:54:05.946Z,23.05
2022-11-22T04:56:33.962Z,25.55
2022-11-22T04:59:01.765Z,26.35
2022-11-22T05:01:29.693Z,23.30
2022-11-22T05:03:57.509Z,20.67
2022-11-22T05:06:25.409Z,21.08
2022-11-22T05:08:53.255Z,21.77
2022-11-22T05:11:20.967Z,23.70
2022-11-22T05:13:48.987Z,21.15
2022-11-22T05:16:17.408Z,20.08
2022-11-22T05:18:59.443Z,20.58
2022-11-22T05:21:29.552Z,22.85
2022-11-22T05:23:57.754Z,22.52
2022-11-22T05:26:29.722Z,19.98
2022-11-22T05:29:00.533Z,23.95
2022-11-22T05:31:28.626Z,23.35
2022-11-22T05:33:57.616Z,22.45
2022-11-22T05:36:25.943Z,17.10
2022-11-22T05:38:54.129Z,21.40
2022-11-22T05:41:21.958Z,20.48
2022-11-22T05:43:49.876Z,17.65
2022-11-22T05:46:24.656Z,21.30
2022-11-22T05:48:54.153Z,20.85
2022-11-22T05:51:28.046Z,18.92
2022-11-22T05:53:58.644Z,19.98
2022-11-22T05:56:26.572Z,22.08
2022-11-22T05:58:54.552Z,20.67
2022-11-22T06:01:24.078Z,21.30
2022-11-22T06:03:52.580Z,19.45
2022-11-22T06:06:20.853Z,18.88
2022-11-22T06:08:49.011Z,19.77
2022-11-22T06:11:26.561Z,18.10
2022-11-22T06:13:59.723Z,18.95
2022-11-22T06:16:28.052Z,19.83
2022-11-22T06:18:56.569Z,20.55
2022-11-22T06:21:26.281Z,17.58
2022-11-22T06:23:55.631Z,19.15
2022-11-22T06:26:25.306Z,18.48
2022-11-22T06:28:54.045Z,16.58
2022-11-22T06:31:24.228Z,18.10
2022-11-22T06:33:53.293Z,17.67
2022-11-22T06:36:25.543Z,18.65
2022-11-22T06:38:53.650Z,18.85
2022-11-22T06:41:31.667Z,18.33
2022-11-22T06:43:59.616Z,19.88
2022-11-22T06:46:28.469Z,18.88
2022-11-22T06:48:56.342Z,15.02
2022-11-22T06:51:29.322Z,13.77
2022-11-22T06:53:58.092Z,17.65
2022-11-22T06:56:27.146Z,19.77
2022-11-22T06:58:55.497Z,18.25
2022-11-22T07:01:25.916Z,19.02
2022-11-22T07:03:58.738Z,22.63
2022-11-22T07:06:29.178Z,16.85
2022-11-22T07:08:57.203Z,17.98
2022-11-22T07:11:27.100Z,15.30
2022-11-22T07:14:01.717Z,15.43
2022-11-22T07:16:33.654Z,15.88
2022-11-22T07:19:01.786Z,17.60
2022-11-22T07:21:30.201Z,14.23
2022-11-22T07:23:58.071Z,19.75
2022-11-22T07:26:27.002Z,17.85
2022-11-22T07:28:55.128Z,14.85
2022-11-22T07:31:23.062Z,16.38
2022-11-22T07:33:51.201Z,14.20
2022-11-22T07:36:21.223Z,18.63
2022-11-22T07:38:49.590Z,13.90
2022-11-22T07:41:18.594Z,15.00
2022-11-22T07:43:47.470Z,15.35
2022-11-22T07:46:29.514Z,16.75
2022-11-22T07:48:57.814Z,16.52
2022-11-22T07:51:25.914Z,15.43
2022-11-22T07:53:54.375Z,16.45
2022-11-22T07:56:22.251Z,16.15
2022-11-22T07:58:49.956Z,16.77
2022-11-22T08:01:19.091Z,16.27
2022-11-22T08:03:47.374Z,14.27
2022-11-22T08:06:15.683Z,16.55
2022-11-22T08:08:44.011Z,16.73
2022-11-22T08:11:12.716Z,13.30
2022-11-22T08:13:41.088Z,17.13
2022-11-22T08:16:15.524Z,17.58
2022-11-22T08:18:47.782Z,13.02
2022-11-22T08:21:16.060Z,14.80
2022-11-22T08:23:44.586Z,17.17
2022-11-22T08:26:14.456Z,14.45
2022-11-22T08:28:43.192Z,14.70
2022-11-22T08:31:16.961Z,14.93
2022-11-22T08:33:44.859Z,15.82
2022-11-22T08:36:12.907Z,14.27
2022-11-22T08:38:40.807Z,13.85
2022-11-22T08:41:08.787Z,16.17
2022-11-22T08:43:36.971Z,12.52
2022-11-22T08:46:04.722Z,16.35
2022-11-22T08:48:36.451Z,16.67
2022-11-22T08:51:06.851Z,16.17
2022-11-22T08:53:37.693Z,14.10
2022-11-22T08:56:06.788Z,14.70
2022-11-22T08:58:34.850Z,13.95
2022-11-22T09:01:14.550Z,15.43
2022-11-22T09:03:42.916Z,19.17
2022-11-22T09:11:52.739Z,13.88
2022-11-22T09:14:20.668Z,16.20
2022-11-22T09:16:48.462Z,14.10
2022-11-22T09:19:16.390Z,18.45
2022-11-22T09:21:44.400Z,16.02
2022-11-22T09:24:12.420Z,15.77
2022-11-22T09:26:40.200Z,13.43
2022-11-22T09:29:08.296Z,16.38
2022-11-22T09:31:36.321Z,12.98
2022-11-22T09:34:04.070Z,14.45
2022-11-22T09:36:31.787Z,12.93
2022-11-22T09:38:59.790Z,16.20
2022-11-22T09:41:49.524Z,15.32
2022-11-22T09:44:32.588Z,14.23
2022-11-22T09:47:19.034Z,16.60
2022-11-22T09:49:58.751Z,16.45
2022-11-22T09:52:48.611Z,14.75
2022-11-22T09:56:01.004Z,16.70
2022-11-22T09:58:51.826Z,14.05
2022-11-22T10:01:27.854Z,15.68
2022-11-22T10:04:14.876Z,15.43
2022-11-22T10:06:51.453Z,17.65
2022-11-22T10:09:31.620Z,14.73
2022-11-22T10:12:09.725Z,16.27
2022-11-22T10:14:43.485Z,16.50
2022-11-22T10:17:34.653Z,15.35
2022-11-22T10:20:07.542Z,14.17
2022-11-22T10:22:35.912Z,14.93
2022-11-22T10:25:12.761Z,15.48
2022-11-22T10:27:42.081Z,15.35
2022-11-22T10:30:20.282Z,15.68
2022-11-22T10:33:13.898Z,14.45
2022-11-22T10:35:59.646Z,16.48
2022-11-22T10:38:30.577Z,13.93
2022-11-22T10:41:15.486Z,16.70
2022-11-22T10:44:18.525Z,13.50
2022-11-22T10:47:07.558Z,12.15
2022-11-22T10:49:50.345Z,14.30
2022-11-22T10:52:20.847Z,16.63
2022-11-22T10:55:04.879Z,11.90
2022-11-22T10:57:46.378Z,14.43
2022-11-22T11:00:20.886Z,17.27
2022-11-22T11:03:09.995Z,14.18
2022-11-22T11:06:26.277Z,15.38
2022-11-22T11:12:30.118Z,18.70
2022-11-22T11:15:01.050Z,16.60
2022-11-22T11:17:32.456Z,17.87
2022-11-22T11:20:03.806Z,15.00
2022-11-22T11:23:12.666Z,13.65
2022-11-22T11:27:56.395Z,15.35
2022-11-22T11:30:24.303Z,17.33
2022-11-22T11:32:54.498Z,11.77
2022-11-22T11:35:28.108Z,12.15
2022-11-22T11:37:56.742Z,11.63
2022-11-22T11:40:29.141Z,14.00
2022-11-22T11:43:36.669Z,19.08
2022-11-22T11:46:20.449Z,13.93
2022-11-22T11:48:51.422Z,13.73
2022-11-22T11:51:26.389Z,12.05
2022-11-22T11:54:10.736Z,12.38
2022-11-22T11:56:45.293Z,13.07
2022-11-22T11:59:16.322Z,12.75
2022-11-22T12:01:59.131Z,15.32
2022-11-22T12:04:30.292Z,11.13
2022-11-22T12:07:03.608Z,15.60
2022-11-22T12:09:43.765Z,12.00
2022-11-22T12:12:30.658Z,16.13
2022-11-22T12:15:21.636Z,13.77
2022-11-22T12:18:07.710Z,11.47
2022-11-22T12:21:02.997Z,13.50
2022-11-22T12:24:03.719Z,12.73
2022-11-22T12:26:43.116Z,12.63
2022-11-22T12:29:15.307Z,16.67
2022-11-22T12:32:03.570Z,11.50
2022-11-22T12:34:34.672Z,13.93
2022-11-22T12:37:09.186Z,15.63
2022-11-22T12:39:37.833Z,15.13
2022-11-22T12:42:23.361Z,15.02
2022-11-22T12:45:10.358Z,14.55
2022-11-22T12:47:42.135Z,14.30
2022-11-22T12:50:40.672Z,14.82
2022-11-22T12:53:18.131Z,13.18
2022-11-22T12:56:10.429Z,9.20
2022-11-22T12:58:48.124Z,13.52
2022-11-22T13:01:30.983Z,12.65
2022-11-22T13:04:23.328Z,11.07
2022-11-22T13:06:58.341Z,13.95
2022-11-22T13:09:39.005Z,12.00
2022-11-22T13:12:12.084Z,12.63
2022-11-22T13:15:05.106Z,13.38
2022-11-22T13:17:35.662Z,12.60
2022-11-22T13:20:08.226Z,11.02
2022-11-22T13:22:39.447Z,13.57
2022-11-22T13:25:25.937Z,11.43
2022-11-22T13:27:55.068Z,11.50
2022-11-22T13:30:25.755Z,13.02
2022-11-22T13:32:58.126Z,12.52
2022-11-22T13:35:37.160Z,12.18
2022-11-22T13:38:16.899Z,10.93
2022-11-22T13:40:51.880Z,11.70
2022-11-22T13:43:22.510Z,13.07
2022-11-22T13:46:01.747Z,9.73
2022-11-22T13:48:42.183Z,10.60
2022-11-22T13:51:42.703Z,10.98
2022-11-22T13:54:38.202Z,11.20
2022-11-22T13:57:22.961Z,12.00
2022-11-22T14:00:15.800Z,11.52
2022-11-22T14:02:50.497Z,11.63
2022-11-22T14:05:20.434Z,10.32
2022-11-22T14:07:56.881Z,12.70
2022-11-22T14:10:40.009Z,13.20
2022-11-22T14:13:26.096Z,12.63
2022-11-22T14:16:11.765Z,12.88
2022-11-22T14:18:51.284Z,11.25
2022-11-22T14:21:51.282Z,11.98
2022-11-22T14:24:37.442Z,12.02
2022-11-22T14:27:43.101Z,10.02
2022-11-22T14:30:22.765Z,11.77
2022-11-22T14:32:55.686Z,12.90
2022-11-22T14:35:29.870Z,13.13
2022-11-22T14:38:05.304Z,12.68
2022-11-22T14:40:40.679Z,13.23
2022-11-22T14:43:46.667Z,15.38
2022-11-22T14:46:51.113Z,14.43
2022-11-22T14:49:16.212Z,12.00
2022-11-22T14:51:43.881Z,13.65
2022-11-22T14:54:23.591Z,12.88
2022-11-22T14:56:51.682Z,18.75
2022-11-22T14:59:34.284Z,16.05
2022-11-22T15:02:17.379Z,13.05
2022-11-22T15:09:12.792Z,15.40
2022-11-22T15:09:20.357Z,14.00
2022-11-22T15:11:03.801Z,13.13
2022-11-22T15:13:49.669Z,12.57
2022-11-22T15:57:37.569Z,14.82
2022-11-22T16:00:26.795Z,16.80
2022-11-22T16:02:59.449Z,12.13
2022-11-22T16:06:08.912Z,15.90
2022-11-22T16:08:22.120Z,13.02
2022-11-22T16:10:51.465Z,14.43
2022-11-22T16:13:22.389Z,16.98
2022-11-22T16:16:11.830Z,14.87
2022-11-22T16:18:43.981Z,13.55
2022-11-22T16:21:11.813Z,12.15
2022-11-22T16:23:45.424Z,13.13
2022-11-22T16:26:25.332Z,13.70
2022-11-22T16:28:54.434Z,12.65
2022-11-22T16:31:27.098Z,10.90
2022-11-22T16:33:56.327Z,13.75
2022-11-22T16:36:25.717Z,14.63
2022-11-22T16:38:53.527Z,16.30
2022-11-22T16:41:25.270Z,12.48
2022-11-22T16:44:00.742Z,11.52
2022-11-22T16:46:28.832Z,16.45
2022-11-22T16:48:57.561Z,10.20
2022-11-22T16:51:30.406Z,11.77
2022-11-22T16:54:06.710Z,17.17
2022-11-22T16:56:34.654Z,10.95
2022-11-22T16:59:05.380Z,14.70
2022-11-22T17:01:36.076Z,12.10
2022-11-22T17:04:05.092Z,15.13
2022-11-22T17:06:33.248Z,12.82
2022-11-22T17:09:01.635Z,14.30
2022-11-22T17:11:33.241Z,14.35
2022-11-22T17:14:01.559Z,13.35
2022-11-22T17:16:29.698Z,12.02
2022-11-22T17:18:57.982Z,13.77
2022-11-22T17:21:37.702Z,13.73
2022-11-22T17:24:24.027Z,11.02
2022-11-22T17:26:51.727Z,12.20
2022-11-22T17:29:48.789Z,10.88
2022-11-22T17:32:09.652Z,12.63
2022-11-22T17:34:37.512Z,16.13
2022-11-22T17:37:08.178Z,14.18
2022-11-22T17:39:35.942Z,12.75
2022-11-22T17:42:04.241Z,11.32
2022-11-22T17:44:32.166Z,11.32
2022-11-22T17:46:59.887Z,11.43
2022-11-22T17:49:27.749Z,11.55
2022-11-22T17:51:55.713Z,15.52
2022-11-22T17:54:23.639Z,12.02
2022-11-22T17:56:51.429Z,10.65
2022-11-22T17:59:19.381Z,12.05
2022-11-22T18:01:47.414Z,10.40
2022-11-22T18:04:17.657Z,11.23
2022-11-22T18:06:45.525Z,11.63
2022-11-22T18:09:13.306Z,9.48
2022-11-22T18:11:41.028Z,11.05
2022-11-22T18:14:10.057Z,10.70
2022-11-22T18:16:37.961Z,13.73
2022-11-22T18:19:05.944Z,11.68
2022-11-22T18:21:34.142Z,10.88
2022-11-22T18:24:03.205Z,10.40
2022-11-22T18:26:39.801Z,9.32
2022-11-22T18:29:40.709Z,7.68
2022-11-22T18:31:58.352Z,8.50
2022-11-22T18:34:26.341Z,8.15
2022-11-22T18:37:00.383Z,10.63
2022-11-22T18:39:32.403Z,13.25
2022-11-22T18:42:00.408Z,9.63
2022-11-22T18:44:28.300Z,9.98
2022-11-22T18:46:56.135Z,9.90
2022-11-22T18:49:24.052Z,8.27
2022-11-22T18:51:51.940Z,8.35
2022-11-22T18:54:21.845Z,9.98
2022-11-22T18:56:50.882Z,11.63
2022-11-22T18:59:19.252Z,14.00
2022-11-22T19:01:47.119Z,15.30
2022-11-22T19:04:15.439Z,11.77
2022-11-22T19:06:44.247Z,12.18
2022-11-22T19:09:12.552Z,10.52
2022-11-22T19:11:42.801Z,10.30
2022-11-22T19:14:10.911Z,9.45
2022-11-22T19:16:38.864Z,12.07
2022-11-22T19:19:08.466Z,9.98
2022-11-22T19:21:36.432Z,8.88
2022-11-22T19:24:04.440Z,10.82
2022-11-22T19:26:32.588Z,12.57
2022-11-22T19:29:02.792Z,9.70
2022-11-22T19:31:31.716Z,10.73
2022-11-22T19:34:00.252Z,12.52
2022-11-22T19:36:34.178Z,7.80
2022-11-22T19:39:07.259Z,9.93
2022-11-22T19:41:35.306Z,7.72
2022-11-22T19:44:03.437Z,8.20
2022-11-22T19:46:31.465Z,7.85
2022-11-22T19:49:01.363Z,8.10
2022-11-22T19:51:31.472Z,9.15
2022-11-22T19:54:02.819Z,8.32
2022-11-22T19:56:36.158Z,6.97
2022-11-22T19:59:06.170Z,9.60
2022-11-22T20:01:35.305Z,9.10
2022-11-22T20:04:06.045Z,9.52
2022-11-22T20:06:35.417Z,7.40
2022-11-22T20:09:10.799Z,8.18
2022-11-22T20:11:42.358Z,11.25
2022-11-22T20:14:13.109Z,10.10
2022-11-22T20:16:41.926Z,8.77
2022-11-22T20:19:11.592Z,10.60
2022-11-22T20:21:41.991Z,11.45
2022-11-22T20:24:10.101Z,10.90
2022-11-22T20:26:37.900Z,7.50
2022-11-22T20:29:07.801Z,10.93
2022-11-22T20:31:38.007Z,10.52
2022-11-22T20:34:06.327Z,9.02
2022-11-22T20:36:35.715Z,10.90
2022-11-22T20:39:10.140Z,8.50
2022-11-22T20:41:41.291Z,10.20
2022-11-22T20:44:13.825Z,8.73
2022-11-22T20:46:42.765Z,8.43
2022-11-22T20:49:10.880Z,7.72
2022-11-22T20:51:40.130Z,9.40
2022-11-22T20:54:08.990Z,9.82
2022-11-22T20:56:38.181Z,7.60
2022-11-22T20:59:06.494Z,9.93
2022-11-22T21:01:34.520Z,9.07
2022-11-22T21:04:02.399Z,8.77
2022-11-22T21:06:32.803Z,9.65
2022-11-22T21:09:00.653Z,9.43
2022-11-22T21:11:29.888Z,11.25
2022-11-22T21:13:58.568Z,7.35
2022-11-22T21:16:28.337Z,11.57
2022-11-22T21:19:05.275Z,9.50
2022-11-22T21:21:37.378Z,11.52
2022-11-22T21:24:07.286Z,8.38
2022-11-22T21:26:35.688Z,8.57
2022-11-22T21:29:05.018Z,8.90
2022-11-22T21:31:33.415Z,8.00
2022-11-22T21:34:01.448Z,7.57
2022-11-22T21:36:29.734Z,7.90
2022-11-22T21:38:57.696Z,8.18
2022-11-22T21:41:42.093Z,12.15
2022-11-22T21:44:11.180Z,9.20
2022-11-22T21:46:39.137Z,11.18
2022-11-22T21:49:07.350Z,13.50
2022-11-22T21:51:35.423Z,8.45
2022-11-22T21:54:03.866Z,6.90
2022-11-22T21:56:32.881Z,7.20
2022-11-22T21:59:01.149Z,8.90
2022-11-22T22:01:29.479Z,8.57
2022-11-22T22:03:57.397Z,8.88
2022-11-22T22:06:25.479Z,11.95
2022-11-22T22:08:53.455Z,8.85
2022-11-22T22:11:21.219Z,8.02
2022-11-22T22:13:48.990Z,12.25
2022-11-22T22:16:19.394Z,9.75
2022-11-22T22:18:47.635Z,9.48
2022-11-22T22:21:16.954Z,7.35
2022-11-22T22:23:45.334Z,8.88
2022-11-22T22:26:15.703Z,9.00
2022-11-22T22:28:45.450Z,9.10
2022-11-22T22:31:21.909Z,8.35
2022-11-22T22:33:54.994Z,5.53
2022-11-22T22:36:23.955Z,7.45
2022-11-22T22:38:51.857Z,6.85
2022-11-22T22:41:20.222Z,7.28
2022-11-22T22:43:49.126Z,5.60
2022-11-22T22:46:25.820Z,6.70
2022-11-22T22:48:57.416Z,9.55
2022-11-22T22:51:32.414Z,5.35
2022-11-22T22:54:01.392Z,7.20
2022-11-22T22:56:30.635Z,9.63
2022-11-22T22:59:01.218Z,7.95
2022-11-22T23:01:31.373Z,12.17
2022-11-22T23:04:00.950Z,6.25
2022-11-22T23:06:31.995Z,6.85
2022-11-22T23:09:03.381Z,5.90
2022-11-22T23:11:50.760Z,6.32
2022-11-22T23:14:22.012Z,5.75
2022-11-22T23:16:54.580Z,8.98
2022-11-22T23:19:25.335Z,7.57
2022-11-22T23:21:53.551Z,8.23
2022-11-22T23:24:21.697Z,7.00
2022-11-22T23:26:49.809Z,8.98
2022-11-22T23:29:18.188Z,8.73
2022-11-22T23:31:45.893Z,7.15
2022-11-22T23:34:13.799Z,5.57
2022-11-22T23:36:41.728Z,8.43
2022-11-22T23:39:10.094Z,7.07
2022-11-22T23:41:37.981Z,6.35
2022-11-22T23:44:05.939Z,7.22
2022-11-22T23:46:34.080Z,7.82
2022-11-22T23:49:03.013Z,6.68
2022-11-22T23:51:33.766Z,9.25
2022-11-22T23:54:04.357Z,8.68
2022-11-22T23:56:33.783Z,6.90
2022-11-22T23:59:02.760Z,7.50
